createdAt,value
2019-02-28T00:01:07.759Z,119.80
2019-02-28T00:03:35.996Z,133.32
2019-02-28T00:06:02.307Z,144.20
2019-02-28T00:08:28.598Z,142.65
2019-02-28T00:10:54.964Z,135.22
2019-02-28T00:13:22.426Z,121.53
2019-02-28T00:15:49.016Z,122.82
2019-02-28T00:18:16.488Z,109.65
2019-02-28T00:20:43.319Z,106.58
2019-02-28T00:23:09.646Z,116.42
2019-02-28T00:25:38.058Z,121.92
2019-02-28T00:28:04.175Z,119.15
2019-02-28T00:30:30.580Z,121.25
2019-02-28T00:32:59.325Z,126.78
2019-02-28T00:35:25.394Z,107.85
2019-02-28T00:37:51.792Z,108.03
2019-02-28T00:40:18.108Z,115.12
2019-02-28T00:42:44.407Z,101.72
2019-02-28T00:45:13.319Z,113.75
2019-02-28T00:47:39.634Z,105.45
2019-02-28T00:50:06.344Z,92.27
2019-02-28T00:52:35.471Z,82.70
2019-02-28T00:55:00.883Z,93.12
2019-02-28T00:57:27.592Z,89.80
2019-02-28T00:59:53.979Z,82.80
2019-02-28T01:02:20.649Z,75.00
2019-02-28T01:04:47.040Z,77.72
2019-02-28T01:07:16.252Z,63.17
2019-02-28T01:09:41.925Z,67.78
2019-02-28T01:12:08.521Z,71.02
2019-02-28T01:14:35.805Z,77.95
2019-02-28T01:17:03.007Z,67.60
2019-02-28T01:19:29.547Z,82.67
2019-02-28T01:21:56.297Z,96.20
2019-02-28T01:24:22.678Z,93.07
2019-02-28T01:26:49.099Z,90.47
2019-02-28T01:29:15.491Z,88.87
2019-02-28T01:31:42.631Z,91.57
2019-02-28T01:34:09.867Z,94.52
2019-02-28T01:36:36.301Z,85.35
2019-02-28T01:39:04.627Z,111.30
2019-02-28T01:41:30.955Z,113.20
2019-02-28T01:43:57.339Z,102.20
2019-02-28T01:46:23.682Z,108.32
2019-02-28T01:48:50.226Z,94.40
2019-02-28T01:51:16.656Z,97.33
2019-02-28T01:53:42.941Z,87.22
2019-02-28T01:56:09.485Z,60.28
2019-02-28T01:58:35.892Z,68.87
2019-02-28T02:01:02.405Z,62.73
2019-02-28T02:03:28.691Z,59.18
2019-02-28T02:05:55.132Z,53.85
2019-02-28T02:08:21.603Z,47.23
2019-02-28T02:10:48.156Z,57.43
2019-02-28T02:13:14.646Z,50.73
2019-02-28T02:15:41.038Z,47.45
2019-02-28T02:18:09.310Z,48.63
2019-02-28T02:20:35.913Z,46.30
2019-02-28T02:23:02.247Z,42.75
2019-02-28T02:25:28.531Z,43.48
2019-02-28T02:27:55.032Z,41.18
2019-02-28T02:30:22.921Z,42.53
2019-02-28T02:32:49.339Z,46.33
2019-02-28T02:35:15.741Z,47.98
2019-02-28T02:37:42.085Z,40.75
2019-02-28T02:40:12.089Z,34.65
2019-02-28T02:42:38.417Z,36.48
2019-02-28T02:45:08.253Z,39.35
2019-02-28T02:47:34.685Z,34.03
2019-02-28T02:50:01.072Z,31.35
2019-02-28T02:52:30.452Z,30.37
2019-02-28T02:54:55.868Z,36.30
2019-02-28T02:57:22.198Z,31.68
2019-02-28T02:59:48.516Z,30.77
2019-02-28T03:02:15.037Z,37.45
2019-02-28T03:04:41.869Z,34.53
2019-02-28T03:07:08.257Z,31.25
2019-02-28T03:09:34.927Z,38.55
2019-02-28T03:12:01.397Z,34.60
2019-02-28T03:14:27.899Z,41.35
2019-02-28T03:16:54.424Z,36.45
2019-02-28T03:19:20.770Z,35.85
2019-02-28T03:21:51.882Z,32.67
2019-02-28T03:24:16.426Z,34.18
2019-02-28T03:26:43.411Z,33.55
2019-02-28T03:29:09.911Z,33.48
2019-02-28T03:31:36.270Z,30.90
2019-02-28T03:34:10.113Z,33.75
2019-02-28T03:36:31.353Z,28.42
2019-02-28T03:38:57.737Z,32.03
2019-02-28T03:41:24.504Z,34.38
2019-02-28T03:43:50.929Z,32.85
2019-02-28T03:46:17.386Z,27.93
2019-02-28T03:48:43.875Z,33.38
2019-02-28T03:51:10.267Z,31.35
2019-02-28T03:53:36.701Z,29.60
2019-02-28T03:56:03.138Z,30.32
2019-02-28T03:58:29.948Z,31.48
2019-02-28T04:00:56.530Z,36.68
2019-02-28T04:03:22.840Z,33.65
2019-02-28T04:05:49.253Z,33.75
2019-02-28T04:08:15.561Z,32.80
2019-02-28T04:10:41.998Z,31.85
2019-02-28T04:13:08.447Z,32.28
2019-02-28T04:15:35.036Z,35.95
2019-02-28T04:18:07.053Z,35.70
2019-02-28T04:20:36.148Z,33.20
2019-02-28T04:22:59.870Z,37.10
2019-02-28T04:25:26.637Z,33.75
2019-02-28T04:27:53.108Z,33.63
2019-02-28T04:30:19.425Z,32.42
2019-02-28T04:32:45.813Z,29.50
2019-02-28T04:35:12.381Z,34.92
2019-02-28T04:37:45.019Z,34.23
2019-02-28T04:40:09.836Z,33.73
2019-02-28T04:42:38.293Z,31.50
2019-02-28T04:45:11.479Z,27.30
2019-02-28T04:47:40.516Z,25.10
2019-02-28T04:50:10.012Z,23.38
2019-02-28T04:52:36.464Z,25.48
2019-02-28T04:55:04.641Z,25.27
2019-02-28T04:57:30.959Z,22.60
2019-02-28T04:59:57.360Z,21.57
2019-02-28T05:02:23.788Z,21.30
2019-02-28T05:04:50.535Z,28.05
2019-02-28T05:07:16.926Z,24.95
2019-02-28T05:09:45.240Z,25.40
2019-02-28T05:12:11.660Z,27.70
2019-02-28T05:14:37.964Z,25.40
2019-02-28T05:17:04.331Z,24.15
2019-02-28T05:19:32.371Z,24.32
2019-02-28T05:21:58.993Z,29.55
2019-02-28T05:24:25.347Z,26.30
2019-02-28T05:26:51.646Z,27.73
2019-02-28T05:29:18.246Z,34.33
2019-02-28T05:31:44.527Z,30.12
2019-02-28T05:34:13.183Z,60.17
2019-02-28T05:36:39.361Z,77.37
2019-02-28T05:39:05.683Z,70.87
2019-02-28T05:41:31.967Z,73.30
2019-02-28T05:43:58.407Z,55.58
2019-02-28T05:46:24.699Z,55.38
2019-02-28T05:48:51.112Z,57.50
2019-02-28T05:51:17.601Z,52.88
2019-02-28T05:53:44.123Z,51.58
2019-02-28T05:56:10.483Z,43.08
2019-02-28T05:58:36.766Z,38.65
2019-02-28T06:01:03.267Z,41.13
2019-02-28T06:03:30.400Z,47.70
2019-02-28T06:05:56.984Z,49.25
2019-02-28T06:08:23.451Z,59.13
2019-02-28T06:10:49.900Z,60.15
2019-02-28T06:13:18.299Z,56.83
2019-02-28T06:15:44.791Z,62.80
2019-02-28T06:18:11.719Z,67.58
2019-02-28T06:20:38.139Z,53.17
2019-02-28T06:23:06.256Z,59.38
2019-02-28T06:25:32.936Z,51.58
2019-02-28T06:27:59.499Z,62.73
2019-02-28T06:30:27.666Z,72.35
2019-02-28T06:32:57.814Z,72.12
2019-02-28T06:35:22.528Z,77.80
2019-02-28T06:37:48.954Z,81.63
2019-02-28T06:40:16.093Z,65.85
2019-02-28T06:42:43.470Z,69.10
2019-02-28T06:45:18.972Z,74.65
2019-02-28T06:47:48.713Z,90.05
2019-02-28T06:50:15.583Z,78.15
2019-02-28T06:52:42.078Z,66.67
2019-02-28T06:55:12.610Z,66.65
2019-02-28T06:57:39.077Z,64.82
2019-02-28T07:00:14.549Z,65.35
2019-02-28T07:02:40.963Z,54.80
2019-02-28T07:05:07.280Z,45.12
2019-02-28T07:07:33.624Z,40.73
2019-02-28T07:10:00.284Z,38.33
2019-02-28T07:12:29.799Z,37.55
2019-02-28T07:14:54.921Z,32.10
2019-02-28T07:17:21.454Z,36.65
2019-02-28T07:19:48.102Z,30.43
2019-02-28T07:22:19.204Z,32.50
2019-02-28T07:24:43.172Z,34.30
2019-02-28T07:27:09.531Z,30.57
2019-02-28T07:29:37.831Z,31.97
2019-02-28T07:32:04.433Z,28.95
2019-02-28T07:34:30.715Z,29.50
2019-02-28T07:36:57.287Z,35.00
2019-02-28T07:39:23.965Z,33.13
2019-02-28T07:41:50.603Z,29.15
2019-02-28T07:44:21.197Z,31.87
2019-02-28T07:46:45.438Z,21.77
2019-02-28T07:49:11.827Z,20.68
2019-02-28T07:51:38.477Z,17.48
2019-02-28T07:54:04.874Z,19.70
2019-02-28T07:56:31.231Z,19.30
2019-02-28T07:58:57.560Z,17.60
2019-02-28T08:01:24.516Z,21.70
2019-02-28T08:03:52.359Z,17.77
2019-02-28T08:06:18.748Z,18.90
2019-02-28T08:08:45.155Z,19.40
2019-02-28T08:11:11.588Z,17.25
2019-02-28T08:13:38.643Z,18.75
2019-02-28T08:16:05.219Z,22.87
2019-02-28T08:18:31.726Z,16.95
2019-02-28T08:20:58.190Z,19.48
2019-02-28T08:23:24.679Z,16.90
2019-02-28T08:25:51.312Z,15.23
2019-02-28T08:28:18.115Z,18.05
2019-02-28T08:30:44.698Z,14.23
2019-02-28T08:33:11.178Z,16.05
2019-02-28T08:35:37.629Z,15.65
2019-02-28T08:38:03.906Z,14.73
2019-02-28T08:40:30.276Z,15.50
2019-02-28T08:42:56.686Z,15.90
2019-02-28T08:45:22.987Z,15.83
2019-02-28T08:47:55.417Z,15.90
2019-02-28T08:50:24.272Z,16.75
2019-02-28T08:53:04.533Z,15.32
2019-02-28T08:55:30.930Z,16.35
2019-02-28T08:58:04.427Z,16.07
2019-02-28T09:00:31.255Z,20.00
2019-02-28T09:02:54.877Z,17.87
2019-02-28T09:05:25.469Z,15.28
2019-02-28T09:07:51.289Z,20.40
2019-02-28T09:10:19.743Z,18.55
2019-02-28T09:12:46.405Z,20.08
2019-02-28T09:15:17.067Z,21.82
2019-02-28T09:17:43.476Z,18.35
2019-02-28T09:20:14.123Z,17.25
2019-02-28T09:22:40.856Z,19.92
2019-02-28T09:25:23.705Z,16.48
2019-02-28T09:27:50.114Z,17.52
2019-02-28T09:30:29.777Z,17.50
2019-02-28T09:32:57.675Z,19.70
2019-02-28T09:35:24.184Z,22.60
2019-02-28T09:37:50.628Z,18.50
2019-02-28T09:40:17.028Z,19.17
2019-02-28T09:42:44.564Z,20.70
2019-02-28T09:45:20.722Z,20.30
2019-02-28T09:50:22.611Z,22.52
2019-02-28T09:52:49.750Z,19.62
2019-02-28T09:55:16.240Z,18.60
2019-02-28T09:57:42.685Z,27.30
2019-02-28T10:00:18.833Z,19.10
2019-02-28T10:02:45.354Z,18.90
2019-02-28T10:05:12.210Z,17.95
2019-02-28T10:07:38.743Z,21.75
2019-02-28T10:10:26.340Z,22.40
2019-02-28T10:12:52.992Z,20.62
2019-02-28T10:15:21.424Z,20.80
2019-02-28T10:17:47.849Z,20.72
2019-02-28T10:20:18.400Z,23.15
2019-02-28T10:22:47.337Z,21.90
2019-02-28T10:25:14.007Z,21.77
2019-02-28T10:27:40.582Z,23.42
2019-02-28T10:30:15.614Z,28.15
2019-02-28T10:32:43.334Z,23.62
2019-02-28T10:35:09.115Z,26.37
2019-02-28T10:37:35.783Z,24.77
2019-02-28T10:40:09.732Z,25.97
2019-02-28T10:42:36.992Z,20.80
2019-02-28T10:45:09.077Z,23.02
2019-02-28T10:47:35.409Z,19.95
2019-02-28T10:50:01.977Z,19.98
2019-02-28T10:52:30.650Z,22.98
2019-02-28T10:54:57.028Z,23.75
2019-02-28T10:57:23.333Z,20.35
2019-02-28T10:59:49.792Z,23.07
2019-02-28T11:02:18.937Z,21.05
2019-02-28T11:04:45.295Z,21.42
2019-02-28T11:07:11.715Z,23.18
2019-02-28T11:09:38.288Z,21.23
2019-02-28T11:12:04.829Z,22.77
2019-02-28T11:14:31.152Z,19.75
2019-02-28T11:16:59.396Z,23.12
2019-02-28T11:19:25.944Z,16.07
2019-02-28T11:21:52.510Z,21.05
2019-02-28T11:24:20.627Z,18.62
2019-02-28T11:26:47.265Z,16.62
2019-02-28T11:29:13.589Z,24.85
2019-02-28T11:31:39.877Z,20.60
2019-02-28T11:34:06.508Z,18.30
2019-02-28T11:36:33.986Z,23.77
2019-02-28T11:39:01.451Z,24.85
2019-02-28T11:41:27.848Z,21.02
2019-02-28T11:43:54.243Z,25.20
2019-02-28T11:46:20.545Z,22.87
2019-02-28T11:48:46.879Z,24.90
2019-02-28T11:51:14.620Z,19.65
2019-02-28T11:53:41.819Z,23.80
2019-02-28T11:56:08.103Z,20.97
2019-02-28T11:58:34.508Z,20.40
2019-02-28T12:01:02.296Z,21.23
2019-02-28T12:03:31.854Z,20.82
2019-02-28T12:05:57.476Z,22.02
2019-02-28T12:08:23.898Z,20.10
2019-02-28T12:10:50.376Z,25.35
2019-02-28T12:13:19.629Z,21.42
2019-02-28T12:15:44.946Z,21.07
2019-02-28T12:18:11.603Z,20.05
2019-02-28T12:20:38.016Z,20.75
2019-02-28T12:23:04.348Z,42.08
2019-02-28T12:25:30.638Z,25.77
2019-02-28T12:27:59.352Z,38.25
2019-02-28T12:30:31.103Z,63.87
2019-02-28T12:32:57.423Z,87.33
2019-02-28T12:35:23.817Z,35.43
2019-02-28T12:37:50.251Z,48.92
2019-02-28T12:40:23.946Z,35.38
2019-02-28T12:42:50.605Z,25.05
2019-02-28T12:45:25.524Z,24.12
2019-02-28T12:47:52.093Z,32.03
2019-02-28T12:50:18.455Z,53.13
2019-02-28T12:52:49.052Z,38.90
2019-02-28T12:55:18.264Z,27.05
2019-02-28T12:57:44.593Z,30.77
2019-02-28T13:00:43.044Z,20.70
2019-02-28T13:03:10.508Z,24.32
2019-02-28T13:05:36.956Z,22.87
2019-02-28T13:08:05.811Z,29.12
2019-02-28T13:10:32.131Z,34.48
2019-02-28T13:13:06.447Z,27.60
2019-02-28T13:15:27.403Z,30.62
2019-02-28T13:17:53.692Z,21.62
2019-02-28T13:20:33.700Z,27.62
2019-02-28T13:22:59.650Z,28.50
2019-02-28T13:25:26.050Z,27.17
2019-02-28T13:27:52.573Z,29.82
2019-02-28T13:30:22.604Z,32.95
2019-02-28T13:32:49.088Z,36.00
2019-02-28T13:35:22.553Z,33.65
2019-02-28T13:37:48.895Z,80.03
2019-02-28T13:40:15.283Z,52.70
2019-02-28T13:42:42.325Z,50.83
2019-02-28T13:45:23.075Z,52.90
2019-02-28T13:47:47.818Z,64.85
2019-02-28T13:50:22.033Z,95.65
2019-02-28T13:52:52.171Z,147.90
2019-02-28T13:55:18.902Z,190.97
2019-02-28T13:57:47.033Z,106.92
2019-02-28T14:00:27.571Z,61.85
2019-02-28T14:02:56.954Z,35.50
2019-02-28T14:05:23.313Z,217.25
2019-02-28T14:07:49.624Z,60.90
2019-02-28T14:10:17.740Z,74.72
2019-02-28T14:12:44.294Z,65.17
2019-02-28T14:18:32.136Z,95.62
2019-02-28T14:20:59.448Z,53.52
2019-02-28T14:23:26.780Z,108.05
2019-02-28T14:25:53.345Z,74.62
2019-02-28T14:28:19.814Z,122.53
2019-02-28T14:30:46.242Z,185.48
2019-02-28T14:33:12.582Z,114.57
2019-02-28T14:35:38.988Z,59.08
2019-02-28T14:38:05.561Z,97.35
2019-02-28T14:40:31.947Z,114.97
2019-02-28T14:42:58.380Z,114.52
2019-02-28T14:45:34.597Z,87.95
2019-02-28T14:50:29.103Z,66.77
2019-02-28T14:52:56.800Z,56.30
2019-02-28T14:55:23.332Z,50.40
2019-02-28T14:57:49.868Z,67.30
2019-02-28T15:00:25.072Z,57.93
2019-02-28T15:02:51.484Z,49.60
2019-02-28T15:05:20.499Z,52.88
2019-02-28T15:07:46.120Z,70.37
2019-02-28T15:10:23.075Z,41.18
2019-02-28T15:12:49.468Z,58.70
2019-02-28T15:15:18.898Z,89.95
2019-02-28T15:17:45.462Z,49.98
2019-02-28T15:20:13.512Z,45.73
2019-02-28T15:22:40.133Z,60.23
2019-02-28T15:25:23.335Z,56.33
2019-02-28T15:27:49.969Z,79.58
2019-02-28T15:30:26.523Z,81.30
2019-02-28T15:32:54.243Z,127.47
2019-02-28T15:35:21.912Z,52.65
2019-02-28T15:37:48.247Z,79.12
2019-02-28T15:40:28.849Z,105.03
2019-02-28T15:42:55.314Z,98.95
2019-02-28T15:45:22.025Z,112.97
2019-02-28T15:47:50.538Z,87.75
2019-02-28T15:50:17.156Z,95.35
2019-02-28T15:52:43.792Z,77.78
2019-02-28T15:55:16.451Z,88.80
2019-02-28T15:57:42.781Z,103.67
2019-02-28T16:00:22.088Z,89.17
2019-02-28T16:02:48.364Z,85.28
2019-02-28T16:05:14.697Z,95.92
2019-02-28T16:07:41.163Z,88.12
2019-02-28T16:10:12.352Z,79.97
2019-02-28T16:12:38.655Z,44.33
2019-02-28T16:15:11.915Z,67.58
2019-02-28T16:17:37.400Z,85.00
2019-02-28T16:20:08.604Z,102.22
2019-02-28T16:22:35.094Z,112.57
2019-02-28T16:25:01.592Z,101.72
2019-02-28T16:27:29.533Z,114.10
2019-02-28T16:29:56.733Z,166.15
2019-02-28T16:32:23.263Z,77.08
2019-02-28T16:34:49.618Z,75.80
2019-02-28T16:37:16.435Z,81.40
2019-02-28T16:39:42.987Z,62.20
2019-02-28T16:42:11.598Z,97.33
2019-02-28T16:44:37.496Z,76.75
2019-02-28T16:47:03.986Z,78.20
2019-02-28T16:49:30.354Z,85.95
2019-02-28T16:51:56.788Z,59.35
2019-02-28T16:54:23.685Z,55.98
2019-02-28T17:00:21.448Z,74.95
2019-02-28T17:02:47.747Z,74.82
2019-02-28T17:05:13.964Z,78.97
2019-02-28T17:07:40.532Z,56.55
2019-02-28T17:10:14.134Z,50.85
2019-02-28T17:12:59.532Z,48.45
2019-02-28T17:15:35.155Z,52.38
2019-02-28T17:18:03.458Z,49.27
2019-02-28T17:20:29.823Z,44.85
2019-02-28T17:22:58.555Z,59.25
2019-02-28T17:25:24.457Z,52.10
2019-02-28T17:27:58.680Z,49.00
2019-02-28T17:30:36.000Z,40.70
2019-02-28T17:33:01.168Z,45.38
2019-02-28T17:35:27.552Z,60.55
2019-02-28T17:37:53.869Z,50.17
2019-02-28T17:40:23.190Z,48.17
2019-02-28T17:42:49.824Z,48.00
2019-02-28T17:45:20.586Z,46.95
2019-02-28T17:48:09.691Z,47.13
2019-02-28T17:50:47.799Z,41.40
2019-02-28T17:53:59.560Z,48.87
2019-02-28T17:57:10.639Z,62.05
2019-02-28T18:00:24.083Z,61.13
2019-02-28T18:03:22.985Z,56.37
2019-02-28T18:06:00.636Z,58.25
2019-02-28T18:08:47.441Z,58.78
2019-02-28T18:11:35.104Z,65.15
2019-02-28T18:14:42.351Z,65.83
2019-02-28T18:17:38.777Z,54.65
2019-02-28T18:20:29.060Z,53.25
2019-02-28T18:23:24.890Z,55.73
2019-02-28T18:26:15.192Z,57.88
2019-02-28T18:28:58.101Z,54.50
2019-02-28T18:31:24.338Z,58.55
2019-02-28T18:33:54.744Z,57.98
2019-02-28T18:36:27.431Z,57.43
2019-02-28T18:38:53.734Z,57.05
2019-02-28T18:41:20.199Z,59.95
2019-02-28T18:43:46.389Z,61.83
2019-02-28T18:46:12.695Z,59.65
2019-02-28T18:48:39.004Z,56.05
2019-02-28T18:51:05.320Z,60.95
2019-02-28T18:53:31.837Z,53.17
2019-02-28T18:55:58.204Z,58.70
2019-02-28T18:58:24.541Z,64.80
2019-02-28T19:00:50.935Z,61.83
2019-02-28T19:03:17.371Z,57.95
2019-02-28T19:05:43.843Z,53.48
2019-02-28T19:08:10.407Z,64.03
2019-02-28T19:10:36.912Z,61.30
2019-02-28T19:13:04.538Z,65.52
2019-02-28T19:15:31.031Z,70.30
2019-02-28T19:17:57.705Z,63.85
2019-02-28T19:20:24.033Z,64.17
2019-02-28T19:22:50.350Z,65.15
2019-02-28T19:25:16.897Z,67.00
2019-02-28T19:27:43.244Z,73.60
2019-02-28T19:30:14.316Z,84.45
2019-02-28T19:32:40.725Z,72.65
2019-02-28T19:35:07.175Z,81.92
2019-02-28T19:37:33.435Z,89.03
2019-02-28T19:39:59.829Z,101.30
2019-02-28T19:42:26.183Z,79.05
2019-02-28T19:44:52.476Z,73.65
2019-02-28T19:47:18.766Z,75.08
2019-02-28T19:49:45.144Z,62.73
2019-02-28T19:52:11.335Z,64.70
2019-02-28T19:54:37.655Z,71.05
2019-02-28T19:57:03.965Z,71.57
2019-02-28T19:59:30.408Z,66.05
2019-02-28T20:01:56.826Z,66.75
2019-02-28T20:04:23.126Z,62.67
2019-02-28T20:06:49.428Z,60.00
2019-02-28T20:09:15.939Z,68.50
2019-02-28T20:11:42.248Z,70.83
2019-02-28T20:14:08.785Z,71.57
2019-02-28T20:16:35.184Z,62.13
2019-02-28T20:19:01.748Z,69.05
2019-02-28T20:21:28.195Z,74.32
2019-02-28T20:23:54.532Z,64.22
2019-02-28T20:26:20.965Z,63.80
2019-02-28T20:28:47.603Z,66.65
2019-02-28T20:31:14.129Z,64.27
2019-02-28T20:33:40.682Z,67.15
2019-02-28T20:36:06.968Z,60.90
2019-02-28T20:38:33.483Z,65.03
2019-02-28T20:40:59.847Z,65.50
2019-02-28T20:43:26.277Z,64.10
2019-02-28T20:45:52.572Z,63.87
2019-02-28T20:48:18.998Z,61.65
2019-02-28T20:50:52.155Z,62.88
2019-02-28T20:53:18.351Z,61.15
2019-02-28T20:55:44.672Z,68.30
2019-02-28T20:58:10.988Z,63.70
2019-02-28T21:00:37.583Z,61.30
2019-02-28T21:03:03.873Z,61.88
2019-02-28T21:05:30.176Z,65.25
2019-02-28T21:07:56.814Z,64.85
2019-02-28T21:10:23.275Z,65.15
2019-02-28T21:12:49.616Z,63.38
2019-02-28T21:15:16.138Z,64.70
2019-02-28T21:17:42.651Z,68.47
2019-02-28T21:20:14.657Z,68.55
2019-02-28T21:22:40.954Z,62.15
2019-02-28T21:25:13.937Z,65.60
2019-02-28T21:27:40.223Z,67.60
2019-02-28T21:30:25.555Z,70.17
2019-02-28T21:32:52.036Z,81.10
2019-02-28T21:35:18.705Z,63.35
2019-02-28T21:37:46.848Z,70.67
2019-02-28T21:40:17.989Z,58.52
2019-02-28T21:42:44.377Z,69.32
2019-02-28T21:45:17.180Z,64.07
2019-02-28T21:47:43.467Z,63.58
2019-02-28T21:50:15.143Z,69.05
2019-02-28T21:52:41.526Z,59.53
2019-02-28T21:55:11.274Z,62.30
2019-02-28T21:57:37.763Z,67.85
2019-02-28T22:00:09.575Z,71.75
2019-02-28T22:02:35.932Z,69.60
2019-02-28T22:05:02.372Z,67.17
2019-02-28T22:07:28.686Z,66.05
2019-02-28T22:09:55.155Z,64.27
2019-02-28T22:12:21.550Z,65.72
2019-02-28T22:14:48.015Z,66.07
2019-02-28T22:17:14.374Z,67.70
2019-02-28T22:19:40.886Z,68.92
2019-02-28T22:22:07.545Z,74.97
2019-02-28T22:24:33.885Z,76.15
2019-02-28T22:27:00.284Z,63.98
2019-02-28T22:29:26.650Z,63.90
2019-02-28T22:31:57.570Z,60.43
2019-02-28T22:34:31.539Z,65.37
2019-02-28T22:36:57.900Z,64.12
2019-02-28T22:39:24.391Z,65.70
2019-02-28T22:41:50.600Z,61.55
2019-02-28T22:44:16.989Z,59.80
2019-02-28T22:46:43.279Z,67.40
2019-02-28T22:49:09.647Z,66.55
2019-02-28T22:51:36.183Z,63.85
2019-02-28T22:54:02.617Z,67.80
2019-02-28T22:56:28.924Z,65.75
2019-02-28T22:58:55.303Z,65.65
2019-02-28T23:01:22.116Z,69.60
2019-02-28T23:03:48.654Z,66.75
2019-02-28T23:06:15.017Z,69.53
2019-02-28T23:08:41.628Z,71.77
2019-02-28T23:11:07.980Z,71.65
2019-02-28T23:13:34.440Z,71.02
2019-02-28T23:16:00.726Z,69.05
2019-02-28T23:18:27.448Z,68.67
2019-02-28T23:20:53.970Z,71.57
2019-02-28T23:23:20.298Z,72.78
2019-02-28T23:25:46.926Z,71.07
2019-02-28T23:28:24.413Z,67.30
2019-02-28T23:31:30.172Z,66.35
2019-02-28T23:34:10.667Z,68.50
2019-02-28T23:36:37.303Z,69.25
2019-02-28T23:39:05.739Z,72.92
2019-02-28T23:41:32.055Z,67.53
2019-02-28T23:43:58.866Z,70.55
2019-02-28T23:46:25.293Z,75.40
2019-02-28T23:48:51.721Z,68.97
2019-02-28T23:51:18.061Z,72.32
2019-02-28T23:53:44.468Z,73.67
2019-02-28T23:56:10.895Z,72.72
2019-02-28T23:58:37.327Z,74.72
